sensor_id;sensor_type;location;lat;lon;timestamp;temperature;humidity
16134;DHT22;8172;45.018;5.972;2022-07-17T00:03:22;21.10;53.00
16134;DHT22;8172;45.018;5.972;2022-07-17T00:08:36;21.10;53.10
16134;DHT22;8172;45.018;5.972;2022-07-17T00:13:50;21.00;53.10
16134;DHT22;8172;45.018;5.972;2022-07-17T00:19:03;21.00;53.10
16134;DHT22;8172;45.018;5.972;2022-07-17T00:24:14;21.00;53.20
16134;DHT22;8172;45.018;5.972;2022-07-17T00:29:26;20.90;53.20
16134;DHT22;8172;45.018;5.972;2022-07-17T00:34:58;20.90;53.30
16134;DHT22;8172;45.018;5.972;2022-07-17T00:40:11;20.80;53.30
16134;DHT22;8172;45.018;5.972;2022-07-17T00:45:27;20.80;53.40
16134;DHT22;8172;45.018;5.972;2022-07-17T00:50:48;20.70;53.40
16134;DHT22;8172;45.018;5.972;2022-07-17T00:56:14;20.70;53.40
16134;DHT22;8172;45.018;5.972;2022-07-17T01:01:25;20.60;53.50
16134;DHT22;8172;45.018;5.972;2022-07-17T01:06:36;20.60;53.60
16134;DHT22;8172;45.018;5.972;2022-07-17T01:11:46;20.50;53.70
16134;DHT22;8172;45.018;5.972;2022-07-17T01:16:56;20.50;53.80
16134;DHT22;8172;45.018;5.972;2022-07-17T01:22:06;20.50;53.90
16134;DHT22;8172;45.018;5.972;2022-07-17T01:27:16;20.50;54.00
16134;DHT22;8172;45.018;5.972;2022-07-17T01:37:40;20.40;54.00
16134;DHT22;8172;45.018;5.972;2022-07-17T01:42:50;20.40;54.20
16134;DHT22;8172;45.018;5.972;2022-07-17T01:48:00;20.30;54.20
16134;DHT22;8172;45.018;5.972;2022-07-17T01:53:10;20.30;54.30
16134;DHT22;8172;45.018;5.972;2022-07-17T01:58:19;20.20;54.30
16134;DHT22;8172;45.018;5.972;2022-07-17T02:03:27;20.10;54.40
16134;DHT22;8172;45.018;5.972;2022-07-17T02:08:36;20.00;54.50
16134;DHT22;8172;45.018;5.972;2022-07-17T02:13:46;19.90;54.50
16134;DHT22;8172;45.018;5.972;2022-07-17T02:18:56;19.90;54.50
16134;DHT22;8172;45.018;5.972;2022-07-17T02:24:05;19.90;54.60
16134;DHT22;8172;45.018;5.972;2022-07-17T02:29:13;19.90;54.70
16134;DHT22;8172;45.018;5.972;2022-07-17T02:34:21;19.80;54.70
16134;DHT22;8172;45.018;5.972;2022-07-17T02:39:29;19.80;55.00
16134;DHT22;8172;45.018;5.972;2022-07-17T02:44:37;19.70;55.20
16134;DHT22;8172;45.018;5.972;2022-07-17T02:49:45;19.60;55.40
16134;DHT22;8172;45.018;5.972;2022-07-17T02:54:52;19.60;55.40
16134;DHT22;8172;45.018;5.972;2022-07-17T03:00:04;19.60;55.50
16134;DHT22;8172;45.018;5.972;2022-07-17T03:05:11;19.50;55.60
16134;DHT22;8172;45.018;5.972;2022-07-17T03:10:19;19.50;55.60
16134;DHT22;8172;45.018;5.972;2022-07-17T03:15:27;19.60;55.70
16134;DHT22;8172;45.018;5.972;2022-07-17T03:20:35;19.50;55.70
16134;DHT22;8172;45.018;5.972;2022-07-17T03:25:42;19.50;55.80
16134;DHT22;8172;45.018;5.972;2022-07-17T03:30:51;19.50;56.00
16134;DHT22;8172;45.018;5.972;2022-07-17T03:35:58;19.40;55.90
16134;DHT22;8172;45.018;5.972;2022-07-17T03:41:06;19.40;56.00
16134;DHT22;8172;45.018;5.972;2022-07-17T03:46:13;19.40;56.10
16134;DHT22;8172;45.018;5.972;2022-07-17T03:51:21;19.30;56.10
16134;DHT22;8172;45.018;5.972;2022-07-17T03:56:29;19.30;56.20
16134;DHT22;8172;45.018;5.972;2022-07-17T04:01:38;19.30;56.20
16134;DHT22;8172;45.018;5.972;2022-07-17T04:06:47;19.30;56.30
16134;DHT22;8172;45.018;5.972;2022-07-17T04:11:57;19.20;56.40
16134;DHT22;8172;45.018;5.972;2022-07-17T04:17:08;19.20;56.40
16134;DHT22;8172;45.018;5.972;2022-07-17T04:22:15;19.20;56.50
16134;DHT22;8172;45.018;5.972;2022-07-17T04:27:23;19.20;56.60
16134;DHT22;8172;45.018;5.972;2022-07-17T04:32:31;19.20;56.70
16134;DHT22;8172;45.018;5.972;2022-07-17T04:37:39;19.20;56.80
16134;DHT22;8172;45.018;5.972;2022-07-17T04:42:47;19.10;56.80
16134;DHT22;8172;45.018;5.972;2022-07-17T04:47:55;19.10;56.80
16134;DHT22;8172;45.018;5.972;2022-07-17T04:53:03;19.10;56.90
16134;DHT22;8172;45.018;5.972;2022-07-17T04:58:11;19.10;57.00
16134;DHT22;8172;45.018;5.972;2022-07-17T05:03:20;19.10;57.10
16134;DHT22;8172;45.018;5.972;2022-07-17T05:08:30;19.10;57.10
16134;DHT22;8172;45.018;5.972;2022-07-17T05:13:37;19.10;57.10
16134;DHT22;8172;45.018;5.972;2022-07-17T05:18:45;19.00;57.30
16134;DHT22;8172;45.018;5.972;2022-07-17T05:23:54;19.00;57.40
16134;DHT22;8172;45.018;5.972;2022-07-17T05:29:04;19.10;57.60
16134;DHT22;8172;45.018;5.972;2022-07-17T05:34:12;19.10;57.60
16134;DHT22;8172;45.018;5.972;2022-07-17T05:39:20;19.10;57.70
16134;DHT22;8172;45.018;5.972;2022-07-17T05:44:28;19.20;57.90
16134;DHT22;8172;45.018;5.972;2022-07-17T05:49:36;19.20;58.00
16134;DHT22;8172;45.018;5.972;2022-07-17T05:54:44;19.10;58.10
16134;DHT22;8172;45.018;5.972;2022-07-17T05:59:59;19.10;58.30
16134;DHT22;8172;45.018;5.972;2022-07-17T06:05:10;19.10;58.30
16134;DHT22;8172;45.018;5.972;2022-07-17T06:10:20;19.10;58.50
16134;DHT22;8172;45.018;5.972;2022-07-17T06:15:28;19.10;58.50
16134;DHT22;8172;45.018;5.972;2022-07-17T06:20:37;19.00;58.70
16134;DHT22;8172;45.018;5.972;2022-07-17T06:25:45;19.00;59.00
16134;DHT22;8172;45.018;5.972;2022-07-17T06:30:56;18.90;59.30
16134;DHT22;8172;45.018;5.972;2022-07-17T06:36:06;18.90;59.60
16134;DHT22;8172;45.018;5.972;2022-07-17T06:41:14;18.90;59.60
16134;DHT22;8172;45.018;5.972;2022-07-17T06:46:24;18.90;59.60
16134;DHT22;8172;45.018;5.972;2022-07-17T06:51:33;18.90;59.60
16134;DHT22;8172;45.018;5.972;2022-07-17T06:56:43;19.00;59.50
16134;DHT22;8172;45.018;5.972;2022-07-17T07:01:53;19.00;59.50
16134;DHT22;8172;45.018;5.972;2022-07-17T07:07:02;19.20;59.60
16134;DHT22;8172;45.018;5.972;2022-07-17T07:12:10;19.30;59.60
16134;DHT22;8172;45.018;5.972;2022-07-17T07:17:19;19.40;59.40
16134;DHT22;8172;45.018;5.972;2022-07-17T07:22:28;19.50;59.50
16134;DHT22;8172;45.018;5.972;2022-07-17T07:27:37;19.70;59.30
16134;DHT22;8172;45.018;5.972;2022-07-17T07:32:46;20.00;59.00
16134;DHT22;8172;45.018;5.972;2022-07-17T07:37:56;20.30;58.90
16134;DHT22;8172;45.018;5.972;2022-07-17T07:43:09;20.60;58.60
16134;DHT22;8172;45.018;5.972;2022-07-17T07:48:35;21.00;58.00
16134;DHT22;8172;45.018;5.972;2022-07-17T07:53:44;21.30;57.30
16134;DHT22;8172;45.018;5.972;2022-07-17T07:58:53;21.50;57.20
16134;DHT22;8172;45.018;5.972;2022-07-17T08:04:01;21.70;57.10
16134;DHT22;8172;45.018;5.972;2022-07-17T08:09:11;21.80;56.80
16134;DHT22;8172;45.018;5.972;2022-07-17T08:14:20;22.00;56.30
16134;DHT22;8172;45.018;5.972;2022-07-17T08:19:30;22.00;55.70
16134;DHT22;8172;45.018;5.972;2022-07-17T08:24:42;22.10;55.80
16134;DHT22;8172;45.018;5.972;2022-07-17T08:29:54;22.20;55.90
16134;DHT22;8172;45.018;5.972;2022-07-17T08:35:05;22.30;55.40
16134;DHT22;8172;45.018;5.972;2022-07-17T08:40:23;22.30;55.30
16134;DHT22;8172;45.018;5.972;2022-07-17T08:45:28;22.40;55.00
16134;DHT22;8172;45.018;5.972;2022-07-17T08:50:37;22.50;54.60
16134;DHT22;8172;45.018;5.972;2022-07-17T08:55:49;22.50;54.20
16134;DHT22;8172;45.018;5.972;2022-07-17T09:01:00;22.60;54.40
16134;DHT22;8172;45.018;5.972;2022-07-17T09:11:23;22.80;54.30
16134;DHT22;8172;45.018;5.972;2022-07-17T09:16:46;22.90;54.00
16134;DHT22;8172;45.018;5.972;2022-07-17T09:22:04;23.10;53.90
16134;DHT22;8172;45.018;5.972;2022-07-17T09:27:15;23.30;54.30
16134;DHT22;8172;45.018;5.972;2022-07-17T09:32:34;23.50;54.00
16134;DHT22;8172;45.018;5.972;2022-07-17T09:37:43;23.60;53.50
16134;DHT22;8172;45.018;5.972;2022-07-17T09:42:59;23.70;53.20
16134;DHT22;8172;45.018;5.972;2022-07-17T09:48:22;23.80;52.90
16134;DHT22;8172;45.018;5.972;2022-07-17T09:53:40;24.00;53.10
16134;DHT22;8172;45.018;5.972;2022-07-17T09:59:01;24.30;52.90
16134;DHT22;8172;45.018;5.972;2022-07-17T10:04:08;24.40;52.60
16134;DHT22;8172;45.018;5.972;2022-07-17T10:09:19;24.60;52.10
16134;DHT22;8172;45.018;5.972;2022-07-17T10:14:31;24.80;52.20
16134;DHT22;8172;45.018;5.972;2022-07-17T10:19:46;24.90;52.30
16134;DHT22;8172;45.018;5.972;2022-07-17T10:24:56;25.10;52.20
16134;DHT22;8172;45.018;5.972;2022-07-17T10:30:10;25.30;52.10
16134;DHT22;8172;45.018;5.972;2022-07-17T10:35:22;25.40;51.60
16134;DHT22;8172;45.018;5.972;2022-07-17T10:40:34;25.60;51.90
16134;DHT22;8172;45.018;5.972;2022-07-17T10:45:45;25.80;52.00
16134;DHT22;8172;45.018;5.972;2022-07-17T10:51:14;25.90;52.10
16134;DHT22;8172;45.018;5.972;2022-07-17T10:56:24;26.10;51.60
16134;DHT22;8172;45.018;5.972;2022-07-17T11:01:37;26.30;51.40
16134;DHT22;8172;45.018;5.972;2022-07-17T11:06:48;26.40;51.20
16134;DHT22;8172;45.018;5.972;2022-07-17T11:11:57;26.50;51.00
16134;DHT22;8172;45.018;5.972;2022-07-17T11:17:06;26.60;51.10
16134;DHT22;8172;45.018;5.972;2022-07-17T11:22:23;26.70;50.70
16134;DHT22;8172;45.018;5.972;2022-07-17T11:27:42;26.90;50.60
16134;DHT22;8172;45.018;5.972;2022-07-17T11:33:20;26.90;50.40
16134;DHT22;8172;45.018;5.972;2022-07-17T11:39:00;27.00;50.70
16134;DHT22;8172;45.018;5.972;2022-07-17T11:44:27;27.10;50.70
16134;DHT22;8172;45.018;5.972;2022-07-17T11:49:39;27.20;50.80
16134;DHT22;8172;45.018;5.972;2022-07-17T11:54:50;27.40;50.60
16134;DHT22;8172;45.018;5.972;2022-07-17T12:05:11;27.60;50.10
16134;DHT22;8172;45.018;5.972;2022-07-17T12:10:22;27.80;49.80
16134;DHT22;8172;45.018;5.972;2022-07-17T12:15:35;27.90;49.80
16134;DHT22;8172;45.018;5.972;2022-07-17T12:21:02;28.00;49.50
16134;DHT22;8172;45.018;5.972;2022-07-17T12:26:31;28.10;49.20
16134;DHT22;8172;45.018;5.972;2022-07-17T12:37:02;28.20;48.80
16134;DHT22;8172;45.018;5.972;2022-07-17T12:42:14;28.30;48.80
16134;DHT22;8172;45.018;5.972;2022-07-17T12:47:26;28.30;48.50
16134;DHT22;8172;45.018;5.972;2022-07-17T12:52:35;28.40;48.50
16134;DHT22;8172;45.018;5.972;2022-07-17T12:57:44;28.50;48.40
16134;DHT22;8172;45.018;5.972;2022-07-17T13:02:55;28.50;48.00
16134;DHT22;8172;45.018;5.972;2022-07-17T13:08:07;28.60;47.90
16134;DHT22;8172;45.018;5.972;2022-07-17T13:13:19;28.60;47.80
16134;DHT22;8172;45.018;5.972;2022-07-17T13:18:31;28.60;47.30
16134;DHT22;8172;45.018;5.972;2022-07-17T13:23:45;28.60;47.30
16134;DHT22;8172;45.018;5.972;2022-07-17T13:28:53;28.60;47.60
16134;DHT22;8172;45.018;5.972;2022-07-17T13:34:02;28.70;47.50
16134;DHT22;8172;45.018;5.972;2022-07-17T13:39:22;28.80;47.10
16134;DHT22;8172;45.018;5.972;2022-07-17T13:44:40;28.90;47.00
16134;DHT22;8172;45.018;5.972;2022-07-17T13:49:59;29.00;46.70
16134;DHT22;8172;45.018;5.972;2022-07-17T13:55:26;29.10;46.60
16134;DHT22;8172;45.018;5.972;2022-07-17T14:00:42;29.10;46.90
16134;DHT22;8172;45.018;5.972;2022-07-17T14:05:58;29.20;46.40
16134;DHT22;8172;45.018;5.972;2022-07-17T14:11:13;29.40;46.70
16134;DHT22;8172;45.018;5.972;2022-07-17T14:16:21;29.50;46.20
16134;DHT22;8172;45.018;5.972;2022-07-17T14:21:33;29.50;46.10
16134;DHT22;8172;45.018;5.972;2022-07-17T14:26:44;29.60;46.10
16134;DHT22;8172;45.018;5.972;2022-07-17T14:31:58;29.70;45.50
16134;DHT22;8172;45.018;5.972;2022-07-17T14:37:08;29.70;45.80
16134;DHT22;8172;45.018;5.972;2022-07-17T14:42:18;29.80;45.90
16134;DHT22;8172;45.018;5.972;2022-07-17T14:47:28;30.00;45.20
16134;DHT22;8172;45.018;5.972;2022-07-17T14:52:39;30.00;44.80
16134;DHT22;8172;45.018;5.972;2022-07-17T14:57:58;30.00;45.10
16134;DHT22;8172;45.018;5.972;2022-07-17T15:08:54;30.30;45.20
16134;DHT22;8172;45.018;5.972;2022-07-17T15:14:09;30.50;44.60
16134;DHT22;8172;45.018;5.972;2022-07-17T15:19:41;30.60;44.90
16134;DHT22;8172;45.018;5.972;2022-07-17T15:24:54;30.80;44.10
16134;DHT22;8172;45.018;5.972;2022-07-17T15:30:08;30.80;44.20
16134;DHT22;8172;45.018;5.972;2022-07-17T15:35:20;30.90;43.80
16134;DHT22;8172;45.018;5.972;2022-07-17T15:40:29;30.90;43.90
16134;DHT22;8172;45.018;5.972;2022-07-17T15:45:49;30.80;43.70
16134;DHT22;8172;45.018;5.972;2022-07-17T15:51:12;30.80;43.70
16134;DHT22;8172;45.018;5.972;2022-07-17T15:56:37;30.90;43.50
16134;DHT22;8172;45.018;5.972;2022-07-17T16:02:07;30.80;43.20
16134;DHT22;8172;45.018;5.972;2022-07-17T16:07:16;30.70;43.30
16134;DHT22;8172;45.018;5.972;2022-07-17T16:12:30;30.60;43.20
16134;DHT22;8172;45.018;5.972;2022-07-17T16:17:39;30.50;43.40
16134;DHT22;8172;45.018;5.972;2022-07-17T16:22:48;30.20;43.10
16134;DHT22;8172;45.018;5.972;2022-07-17T16:27:56;29.80;43.40
16134;DHT22;8172;45.018;5.972;2022-07-17T16:33:05;29.40;43.70
16134;DHT22;8172;45.018;5.972;2022-07-17T16:38:15;29.00;44.00
16134;DHT22;8172;45.018;5.972;2022-07-17T16:43:24;28.70;44.40
16134;DHT22;8172;45.018;5.972;2022-07-17T16:48:32;28.50;44.40
16134;DHT22;8172;45.018;5.972;2022-07-17T16:53:41;28.20;44.70
16134;DHT22;8172;45.018;5.972;2022-07-17T16:58:50;28.00;44.80
16134;DHT22;8172;45.018;5.972;2022-07-17T17:04:01;27.70;45.10
16134;DHT22;8172;45.018;5.972;2022-07-17T17:09:09;27.60;45.40
16134;DHT22;8172;45.018;5.972;2022-07-17T17:14:17;27.50;45.60
16134;DHT22;8172;45.018;5.972;2022-07-17T17:19:26;27.40;46.00
16134;DHT22;8172;45.018;5.972;2022-07-17T17:24:34;27.30;46.10
16134;DHT22;8172;45.018;5.972;2022-07-17T17:29:43;27.20;46.30
16134;DHT22;8172;45.018;5.972;2022-07-17T17:34:52;27.10;46.50
16134;DHT22;8172;45.018;5.972;2022-07-17T17:40:02;27.10;46.80
16134;DHT22;8172;45.018;5.972;2022-07-17T17:45:10;27.00;46.70
16134;DHT22;8172;45.018;5.972;2022-07-17T17:50:22;26.90;47.10
16134;DHT22;8172;45.018;5.972;2022-07-17T17:55:33;26.90;47.20
16134;DHT22;8172;45.018;5.972;2022-07-17T18:00:42;26.80;47.00
16134;DHT22;8172;45.018;5.972;2022-07-17T18:05:50;26.70;47.00
16134;DHT22;8172;45.018;5.972;2022-07-17T18:10:59;26.70;47.40
16134;DHT22;8172;45.018;5.972;2022-07-17T18:16:09;26.60;47.80
16134;DHT22;8172;45.018;5.972;2022-07-17T18:21:19;26.60;47.40
16134;DHT22;8172;45.018;5.972;2022-07-17T18:26:27;26.50;47.70
16134;DHT22;8172;45.018;5.972;2022-07-17T18:31:37;26.50;48.10
16134;DHT22;8172;45.018;5.972;2022-07-17T18:36:46;26.40;48.10
16134;DHT22;8172;45.018;5.972;2022-07-17T18:41:56;26.30;48.20
16134;DHT22;8172;45.018;5.972;2022-07-17T18:47:05;26.20;48.60
16134;DHT22;8172;45.018;5.972;2022-07-17T18:52:15;26.20;48.70
16134;DHT22;8172;45.018;5.972;2022-07-17T18:57:25;26.10;48.90
16134;DHT22;8172;45.018;5.972;2022-07-17T19:02:33;26.00;49.20
16134;DHT22;8172;45.018;5.972;2022-07-17T19:07:43;25.90;49.30
16134;DHT22;8172;45.018;5.972;2022-07-17T19:12:55;25.70;49.60
16134;DHT22;8172;45.018;5.972;2022-07-17T19:18:34;25.60;49.70
16134;DHT22;8172;45.018;5.972;2022-07-17T19:24:24;25.50;50.00
16134;DHT22;8172;45.018;5.972;2022-07-17T19:29:52;25.40;50.20
16134;DHT22;8172;45.018;5.972;2022-07-17T19:35:30;25.30;50.40
16134;DHT22;8172;45.018;5.972;2022-07-17T19:40:48;25.10;50.50
16134;DHT22;8172;45.018;5.972;2022-07-17T19:45:57;25.00;50.80
16134;DHT22;8172;45.018;5.972;2022-07-17T19:51:09;25.00;50.60
16134;DHT22;8172;45.018;5.972;2022-07-17T19:56:20;24.90;50.60
16134;DHT22;8172;45.018;5.972;2022-07-17T20:01:37;24.80;50.60
16134;DHT22;8172;45.018;5.972;2022-07-17T20:06:45;24.70;50.90
16134;DHT22;8172;45.018;5.972;2022-07-17T20:11:55;24.60;51.00
16134;DHT22;8172;45.018;5.972;2022-07-17T20:17:04;24.60;51.20
16134;DHT22;8172;45.018;5.972;2022-07-17T20:22:14;24.50;51.30
16134;DHT22;8172;45.018;5.972;2022-07-17T20:27:25;24.40;51.30
16134;DHT22;8172;45.018;5.972;2022-07-17T20:32:46;24.40;51.30
16134;DHT22;8172;45.018;5.972;2022-07-17T20:38:47;24.30;51.30
16134;DHT22;8172;45.018;5.972;2022-07-17T20:43:57;24.30;51.40
16134;DHT22;8172;45.018;5.972;2022-07-17T20:49:05;24.20;51.50
16134;DHT22;8172;45.018;5.972;2022-07-17T20:54:15;24.10;51.70
16134;DHT22;8172;45.018;5.972;2022-07-17T20:59:23;24.10;51.70
16134;DHT22;8172;45.018;5.972;2022-07-17T21:04:32;24.10;51.80
16134;DHT22;8172;45.018;5.972;2022-07-17T21:09:42;24.00;51.90
16134;DHT22;8172;45.018;5.972;2022-07-17T21:14:56;24.00;52.00
16134;DHT22;8172;45.018;5.972;2022-07-17T21:20:58;23.90;52.00
16134;DHT22;8172;45.018;5.972;2022-07-17T21:26:57;23.90;52.20
16134;DHT22;8172;45.018;5.972;2022-07-17T21:32:32;23.80;52.50
16134;DHT22;8172;45.018;5.972;2022-07-17T21:38:07;23.80;52.70
16134;DHT22;8172;45.018;5.972;2022-07-17T21:43:16;23.60;52.90
16134;DHT22;8172;45.018;5.972;2022-07-17T21:48:27;23.60;53.10
16134;DHT22;8172;45.018;5.972;2022-07-17T21:53:36;23.50;53.30
16134;DHT22;8172;45.018;5.972;2022-07-17T21:58:44;23.40;53.40
16134;DHT22;8172;45.018;5.972;2022-07-17T22:03:56;23.40;53.40
16134;DHT22;8172;45.018;5.972;2022-07-17T22:09:05;23.30;53.50
16134;DHT22;8172;45.018;5.972;2022-07-17T22:14:13;23.20;53.80
16134;DHT22;8172;45.018;5.972;2022-07-17T22:19:22;23.20;53.90
16134;DHT22;8172;45.018;5.972;2022-07-17T22:24:31;23.10;54.00
16134;DHT22;8172;45.018;5.972;2022-07-17T22:29:39;23.00;54.00
16134;DHT22;8172;45.018;5.972;2022-07-17T22:34:48;23.00;54.10
16134;DHT22;8172;45.018;5.972;2022-07-17T22:39:57;22.90;54.00
16134;DHT22;8172;45.018;5.972;2022-07-17T22:45:06;22.90;54.00
16134;DHT22;8172;45.018;5.972;2022-07-17T22:50:15;22.80;54.00
16134;DHT22;8172;45.018;5.972;2022-07-17T22:55:22;22.80;54.10
16134;DHT22;8172;45.018;5.972;2022-07-17T23:00:31;22.70;54.10
16134;DHT22;8172;45.018;5.972;2022-07-17T23:05:39;22.70;54.10
16134;DHT22;8172;45.018;5.972;2022-07-17T23:10:47;22.60;54.20
16134;DHT22;8172;45.018;5.972;2022-07-17T23:15:55;22.60;54.30
16134;DHT22;8172;45.018;5.972;2022-07-17T23:21:03;22.60;54.40
16134;DHT22;8172;45.018;5.972;2022-07-17T23:26:11;22.60;54.40
16134;DHT22;8172;45.018;5.972;2022-07-17T23:31:20;22.50;54.40
16134;DHT22;8172;45.018;5.972;2022-07-17T23:36:27;22.50;54.50
16134;DHT22;8172;45.018;5.972;2022-07-17T23:41:35;22.50;54.50
16134;DHT22;8172;45.018;5.972;2022-07-17T23:46:43;22.50;54.50
16134;DHT22;8172;45.018;5.972;2022-07-17T23:51:51;22.50;54.60
16134;DHT22;8172;45.018;5.972;2022-07-17T23:56:59;22.50;54.70
